Terminal Aerodrome Forecast
Issued by NWS Portland, OR

Home | Current Version | Previous Version | Text Only | Print | Product List | Glossary On
Versions: 1 2 3 4 5 6 7 8 9 10 11 12 13 14
000
FTUS46 KPQR 152334
TAFAST
TAF
KAST 152334Z 1600/1624 23010KT 6SM -DZ SCT025 OVC035
      TEMPO 1600/1603 BKN025
     FM160300 21006KT 5SM -RADZ BR BKN025 OVC035
     FM160600 21006KT 4SM -RADZ BR SCT007 BKN015 OVC025
     FM161800 21012KT 6SM -RADZ BR SCT015 OVC025=

USA.gov is the U.S. government's official web portal to all federal, state and local government web resources and services.